createdAt,value
2017-06-23T00:00:34.073Z,22.3
2017-06-23T00:01:44.014Z,22.42
2017-06-23T00:02:53.650Z,22.4
2017-06-23T00:04:03.590Z,22.36
2017-06-23T00:05:13.532Z,22.28
2017-06-23T00:06:23.471Z,22.33
2017-06-23T00:07:33.405Z,22.22
2017-06-23T00:08:43.663Z,22.33
2017-06-23T00:09:53.611Z,22.3
2017-06-23T00:11:03.558Z,22.21
2017-06-23T00:12:13.496Z,22.22
2017-06-23T00:13:23.444Z,22.3
2017-06-23T00:14:33.396Z,22.27
2017-06-23T00:15:43.016Z,22.31
2017-06-23T00:16:53.284Z,22.33
2017-06-23T00:18:02.905Z,22.21
2017-06-23T00:19:13.157Z,22.21
2017-06-23T00:20:23.086Z,22.2
2017-06-23T00:21:33.344Z,22.24
2017-06-23T00:22:43.603Z,22.25
2017-06-23T00:23:53.854Z,22.15
2017-06-23T00:25:03.475Z,22.14
2017-06-23T00:26:13.420Z,22.1
2017-06-23T00:27:23.050Z,22.07
2017-06-23T00:28:32.677Z,22
2017-06-23T00:29:42.615Z,22.02
2017-06-23T00:30:52.557Z,22.02
2017-06-23T00:32:02.502Z,21.94
2017-06-23T00:33:12.766Z,21.94
2017-06-23T00:34:23.029Z,21.92
2017-06-23T00:35:33.277Z,21.98
2017-06-23T00:36:43.228Z,21.94
2017-06-23T00:37:53.480Z,22.07
2017-06-23T00:39:03.741Z,22.1
2017-06-23T00:40:14.004Z,22.02
2017-06-23T00:41:23.943Z,22.07
2017-06-23T00:42:33.880Z,22.03
2017-06-23T00:43:44.129Z,22.06
2017-06-23T00:44:54.068Z,22.1
2017-06-23T00:46:04.322Z,22.05
2017-06-23T00:47:14.572Z,22.03
2017-06-23T00:48:24.814Z,22.05
2017-06-23T00:49:34.755Z,22.02
2017-06-23T00:50:44.379Z,22.05
2017-06-23T00:51:54.005Z,22.03
2017-06-23T00:53:04.270Z,21.92
2017-06-23T00:54:14.215Z,22.02
2017-06-23T00:55:24.154Z,21.91
2017-06-23T00:56:34.408Z,21.82
2017-06-23T00:57:44.345Z,21.88
2017-06-23T00:58:54.287Z,21.86
2017-06-23T01:00:04.227Z,21.98
2017-06-23T01:01:14.488Z,21.92
2017-06-23T01:02:24.732Z,21.96
2017-06-23T01:03:34.349Z,22.02
2017-06-23T01:04:44.285Z,22
2017-06-23T01:05:54.538Z,21.92
2017-06-23T01:07:04.157Z,22.05
2017-06-23T01:08:14.098Z,21.91
2017-06-23T01:09:24.351Z,21.96
2017-06-23T01:10:34.606Z,21.83
2017-06-23T01:11:44.549Z,21.84
2017-06-23T01:12:54.814Z,21.91
2017-06-23T01:14:04.124Z,21.98
2017-06-23T01:15:14.064Z,21.91
2017-06-23T01:16:24.009Z,21.84
2017-06-23T01:17:34.258Z,21.75
2017-06-23T01:18:44.188Z,21.84
2017-06-23T01:19:54.442Z,21.8
2017-06-23T01:21:04.707Z,21.84
2017-06-23T01:22:14.958Z,21.84
2017-06-23T01:23:24.892Z,21.9
2017-06-23T01:24:34.842Z,21.96
2017-06-23T01:25:45.083Z,22.05
2017-06-23T01:26:55.017Z,22.14
2017-06-23T01:28:05.267Z,22.24
2017-06-23T01:29:15.201Z,22.25
2017-06-23T01:30:25.135Z,22.37
2017-06-23T01:31:35.083Z,22.24
2017-06-23T01:32:45.332Z,22.21
2017-06-23T01:33:55.583Z,22.15
2017-06-23T01:35:04.585Z,22.07
2017-06-23T01:36:14.514Z,22.2
2017-06-23T01:37:24.132Z,22.24
2017-06-23T01:38:34.375Z,22.27
2017-06-23T01:39:44.313Z,22.24
2017-06-23T01:40:54.571Z,22.21
2017-06-23T01:42:04.517Z,22.33
2017-06-23T01:43:14.768Z,22.35
2017-06-23T01:44:24.709Z,22.22
2017-06-23T01:45:34.668Z,22.14
2017-06-23T01:46:44.610Z,22.05
2017-06-23T01:47:54.546Z,21.88
2017-06-23T01:49:04.486Z,22.03
2017-06-23T01:50:14.726Z,22.18
2017-06-23T01:51:24.977Z,22.33
2017-06-23T01:52:34.608Z,22.3
2017-06-23T01:53:44.544Z,22.37
2017-06-23T01:54:54.791Z,22.39
2017-06-23T01:56:05.039Z,22.35
2017-06-23T01:57:15.298Z,22.33
2017-06-23T01:58:25.552Z,22.3
2017-06-23T01:59:35.482Z,22.14
2017-06-23T02:00:45.740Z,22.06
2017-06-23T02:01:55.668Z,22.09
2017-06-23T02:03:05.924Z,22.03
2017-06-23T02:04:16.175Z,22.06
2017-06-23T02:05:26.124Z,22.02
2017-06-23T02:06:36.073Z,21.96
2017-06-23T02:07:46.343Z,21.91
2017-06-23T02:08:55.640Z,22.06
2017-06-23T02:10:05.256Z,22.14
2017-06-23T02:11:15.194Z,22.1
2017-06-23T02:12:25.436Z,22.05
2017-06-23T02:13:35.373Z,22.09
2017-06-23T02:14:45.361Z,22.02
2017-06-23T02:15:55.612Z,21.92
2017-06-23T02:17:05.557Z,21.83
2017-06-23T02:18:15.805Z,21.82
2017-06-23T02:19:26.060Z,21.82
2017-06-23T02:20:36.032Z,21.8
2017-06-23T02:21:46.279Z,21.77
2017-06-23T02:22:56.537Z,21.62
2017-06-23T02:24:06.176Z,21.59
2017-06-23T02:25:16.121Z,21.61
2017-06-23T02:26:26.064Z,21.61
2017-06-23T02:27:36.321Z,21.59
2017-06-23T02:28:45.937Z,21.68
2017-06-23T02:29:56.176Z,21.69
2017-06-23T02:31:06.433Z,21.65
2017-06-23T02:32:16.377Z,21.64
2017-06-23T02:33:26.632Z,21.61
2017-06-23T02:34:36.582Z,21.67
2017-06-23T02:35:46.526Z,21.64
2017-06-23T02:36:56.787Z,21.56
2017-06-23T02:38:07.031Z,21.61
2017-06-23T02:39:17.283Z,21.58
2017-06-23T02:40:27.546Z,21.56
2017-06-23T02:41:37.483Z,21.62
2017-06-23T02:42:47.422Z,21.69
2017-06-23T02:43:57.389Z,21.65
2017-06-23T02:45:07.337Z,21.68
2017-06-23T02:46:17.590Z,21.53
2017-06-23T02:47:27.536Z,21.54
2017-06-23T02:48:37.156Z,21.56
2017-06-23T02:49:47.100Z,21.58
2017-06-23T02:50:57.031Z,21.53
2017-06-23T02:52:07.278Z,21.58
2017-06-23T02:53:17.520Z,21.5
2017-06-23T02:54:27.461Z,21.46
2017-06-23T02:55:37.696Z,21.34
2017-06-23T02:56:47.936Z,21.37
2017-06-23T02:57:57.872Z,21.35
2017-06-23T02:59:07.813Z,21.37
2017-06-23T03:00:17.750Z,21.38
2017-06-23T03:01:28.000Z,21.28
2017-06-23T03:02:38.235Z,21.25
2017-06-23T03:03:48.479Z,21.27
2017-06-23T03:04:58.420Z,21.28
2017-06-23T03:06:08.035Z,21.34
2017-06-23T03:07:17.958Z,21.46
2017-06-23T03:08:28.205Z,21.42
2017-06-23T03:09:38.145Z,21.58
2017-06-23T03:10:48.077Z,21.52
2017-06-23T03:11:58.349Z,21.5
2017-06-23T03:13:08.596Z,21.47
2017-06-23T03:14:18.863Z,21.56
2017-06-23T03:15:28.791Z,21.47
2017-06-23T03:16:38.732Z,21.54
2017-06-23T03:17:48.351Z,21.49
2017-06-23T03:18:58.608Z,21.52
2017-06-23T03:20:08.539Z,21.61
2017-06-23T03:21:18.786Z,21.5
2017-06-23T03:22:29.030Z,21.5
2017-06-23T03:23:39.282Z,21.47
2017-06-23T03:24:49.219Z,21.53
2017-06-23T03:25:59.475Z,21.32
2017-06-23T03:27:09.723Z,21.38
2017-06-23T03:28:19.971Z,21.4
2017-06-23T03:29:29.900Z,21.4
2017-06-23T03:30:40.158Z,21.49
2017-06-23T03:31:50.087Z,21.46
2017-06-23T03:33:00.028Z,21.43
2017-06-23T03:34:10.275Z,21.35
2017-06-23T03:35:20.230Z,21.46
2017-06-23T03:36:30.162Z,21.52
2017-06-23T03:37:40.394Z,21.58
2017-06-23T03:38:50.336Z,21.69
2017-06-23T03:39:59.951Z,21.84
2017-06-23T03:41:10.209Z,21.84
2017-06-23T03:42:20.152Z,21.94
2017-06-23T03:43:30.402Z,21.82
2017-06-23T03:44:40.643Z,21.84
2017-06-23T03:45:50.888Z,21.74
2017-06-23T03:47:00.817Z,21.69
2017-06-23T03:48:10.129Z,21.65
2017-06-23T03:49:20.380Z,21.72
2017-06-23T03:50:30.328Z,21.75
2017-06-23T03:51:40.272Z,21.88
2017-06-23T03:52:50.521Z,21.96
2017-06-23T03:54:00.483Z,21.91
2017-06-23T03:55:10.741Z,21.98
2017-06-23T03:56:20.053Z,21.9
2017-06-23T03:57:30.298Z,21.9
2017-06-23T03:58:40.236Z,21.98
2017-06-23T03:59:50.481Z,21.88
2017-06-23T04:01:00.436Z,21.94
2017-06-23T04:02:10.684Z,21.82
2017-06-23T04:03:20.934Z,21.77
2017-06-23T04:04:31.178Z,21.83
2017-06-23T04:05:41.451Z,21.84
2017-06-23T04:06:51.701Z,21.9
2017-06-23T04:08:01.956Z,21.8
2017-06-23T04:09:11.889Z,21.92
2017-06-23T04:10:22.135Z,21.92
2017-06-23T04:11:32.059Z,21.92
2017-06-23T04:12:42.004Z,21.88
2017-06-23T04:13:52.249Z,21.94
2017-06-23T04:15:02.177Z,21.92
2017-06-23T04:16:12.434Z,21.94
2017-06-23T04:17:22.364Z,21.92
2017-06-23T04:18:32.604Z,21.91
2017-06-23T04:19:41.918Z,21.91
2017-06-23T04:20:51.857Z,21.9
2017-06-23T04:22:02.112Z,21.82
2017-06-23T04:23:12.077Z,21.84
2017-06-23T04:24:22.015Z,21.84
2017-06-23T04:25:31.325Z,21.79
2017-06-23T04:26:41.251Z,21.79
2017-06-23T04:27:51.521Z,21.9
2017-06-23T04:29:01.447Z,21.86
2017-06-23T04:30:11.698Z,21.92
2017-06-23T04:31:21.636Z,21.94
2017-06-23T04:32:31.878Z,22.02
2017-06-23T04:33:41.809Z,22.15
2017-06-23T04:34:51.429Z,22.21
2017-06-23T04:36:01.361Z,22.37
2017-06-23T04:37:11.303Z,22.4
2017-06-23T04:38:24.004Z,22.43
2017-06-23T04:39:33.625Z,22.46
2017-06-23T04:40:43.869Z,22.55
2017-06-23T04:41:54.113Z,22.58
2017-06-23T04:43:03.426Z,22.58
2017-06-23T04:44:13.057Z,22.61
2017-06-23T04:45:23.300Z,22.67
2017-06-23T04:46:33.242Z,22.67
2017-06-23T04:47:43.487Z,22.72
2017-06-23T04:48:53.440Z,22.73
2017-06-23T04:50:03.385Z,22.76
2017-06-23T04:51:13.314Z,22.7
2017-06-23T04:52:23.568Z,22.73
2017-06-23T04:53:33.521Z,22.72
2017-06-23T04:54:43.450Z,22.76
2017-06-23T04:55:53.689Z,22.79
2017-06-23T04:57:03.670Z,22.77
2017-06-23T04:58:13.595Z,22.8
2017-06-23T04:59:23.207Z,22.86
2017-06-23T05:00:32.829Z,22.85
2017-06-23T05:01:42.130Z,22.83
2017-06-23T05:02:51.759Z,22.9
2017-06-23T05:04:02.006Z,22.88
2017-06-23T05:05:12.327Z,22.9
2017-06-23T05:06:22.362Z,22.92
2017-06-23T05:07:32.315Z,22.9
2017-06-23T05:08:42.243Z,22.94
2017-06-23T05:09:52.494Z,22.94
2017-06-23T05:11:02.429Z,23
2017-06-23T05:12:12.677Z,22.98
2017-06-23T05:13:22.612Z,22.97
2017-06-23T05:14:32.535Z,22.97
2017-06-23T05:15:42.473Z,23.04
2017-06-23T05:16:52.094Z,22.95
2017-06-23T05:18:02.029Z,22.91
2017-06-23T05:19:11.972Z,23
2017-06-23T05:20:21.907Z,23.07
2017-06-23T05:21:31.524Z,23.1
2017-06-23T05:22:41.766Z,23
2017-06-23T05:23:51.695Z,23.02
2017-06-23T05:25:01.937Z,23
2017-06-23T05:26:12.191Z,23.04
2017-06-23T05:27:22.444Z,23.04
2017-06-23T05:28:31.752Z,23.02
2017-06-23T05:29:41.368Z,23.07
2017-06-23T05:30:51.622Z,23.15
2017-06-23T05:32:01.254Z,23
2017-06-23T05:33:11.211Z,23.09
2017-06-23T05:34:21.150Z,23.16
2017-06-23T05:35:31.408Z,23.05
2017-06-23T05:36:41.337Z,23.05
2017-06-23T05:37:51.585Z,23.1
2017-06-23T05:39:01.533Z,23.09
2017-06-23T05:40:11.794Z,23.1
2017-06-23T05:41:22.049Z,23.16
2017-06-23T05:42:31.987Z,23.12
2017-06-23T05:43:41.291Z,23.12
2017-06-23T05:44:51.563Z,23.1
2017-06-23T05:46:01.815Z,23.12
2017-06-23T05:47:11.435Z,23.1
2017-06-23T05:48:21.686Z,23.12
2017-06-23T05:49:31.616Z,23.1
2017-06-23T05:50:41.563Z,23.1
2017-06-23T05:51:51.805Z,23.1
2017-06-23T05:53:02.054Z,23.2
2017-06-23T05:54:11.982Z,23.16
2017-06-23T05:55:22.227Z,23.07
2017-06-23T05:56:32.157Z,23.12
2017-06-23T05:57:41.772Z,23.13
2017-06-23T05:58:51.398Z,23.12
2017-06-23T06:00:01.644Z,23.15
2017-06-23T06:01:11.576Z,23.12
2017-06-23T06:02:20.885Z,23.1
2017-06-23T06:03:30.824Z,23.09
2017-06-23T06:04:41.072Z,23.12
2017-06-23T06:05:51.326Z,23.19
2017-06-23T06:07:01.570Z,23.23
2017-06-23T06:08:11.824Z,23.22
2017-06-23T06:09:22.070Z,23.15
2017-06-23T06:10:32.319Z,23.23
2017-06-23T06:11:42.257Z,23.13
2017-06-23T06:12:52.520Z,23.22
2017-06-23T06:14:02.763Z,23.16
2017-06-23T06:15:13.009Z,23.17
2017-06-23T06:16:22.948Z,23.28
2017-06-23T06:17:33.195Z,23.28
2017-06-23T06:18:43.439Z,23.22
2017-06-23T06:19:53.374Z,23.27
2017-06-23T06:21:03.625Z,23.27
2017-06-23T06:22:13.868Z,23.15
2017-06-23T06:23:24.112Z,23.25
2017-06-23T06:24:34.355Z,23.2
2017-06-23T06:25:44.299Z,23.16
2017-06-23T06:26:54.291Z,23.27
2017-06-23T06:28:03.919Z,23.17
2017-06-23T06:29:13.868Z,23.28
2017-06-23T06:30:24.114Z,23.25
2017-06-23T06:31:34.369Z,23.2
2017-06-23T06:32:44.611Z,23.27
2017-06-23T06:33:54.565Z,23.17
2017-06-23T06:35:04.823Z,23.2
2017-06-23T06:36:15.075Z,23.23
2017-06-23T06:37:25.027Z,23.31
2017-06-23T06:38:34.332Z,23.27
2017-06-23T06:39:43.644Z,23.36
2017-06-23T06:40:52.956Z,23.27
2017-06-23T06:42:03.217Z,23.36
2017-06-23T06:43:12.522Z,23.33
2017-06-23T06:44:22.779Z,23.28
2017-06-23T06:45:33.035Z,23.28
2017-06-23T06:46:43.285Z,23.27
2017-06-23T06:47:53.219Z,23.27
2017-06-23T06:49:03.138Z,23.33
2017-06-23T06:50:13.071Z,23.27
2017-06-23T06:51:23.319Z,23.33
2017-06-23T06:52:33.562Z,23.33
2017-06-23T06:53:43.806Z,23.25
2017-06-23T06:54:53.463Z,23.39
2017-06-23T06:56:03.083Z,23.35
2017-06-23T06:57:13.332Z,23.36
2017-06-23T06:58:23.266Z,23.33
2017-06-23T06:59:32.587Z,23.39
2017-06-23T07:00:42.837Z,23.25
2017-06-23T07:01:52.779Z,23.28
2017-06-23T07:03:02.714Z,23.4
2017-06-23T07:04:12.343Z,23.35
2017-06-23T07:05:22.278Z,23.28
2017-06-23T07:06:32.210Z,23.27
2017-06-23T07:07:41.508Z,23.25
2017-06-23T07:08:51.756Z,23.4
2017-06-23T07:10:01.731Z,23.33
2017-06-23T07:11:11.356Z,23.32
2017-06-23T07:12:20.980Z,23.38
2017-06-23T07:13:30.940Z,23.42
2017-06-23T07:14:40.883Z,23.32
2017-06-23T07:15:51.140Z,23.36
2017-06-23T07:17:00.144Z,23.43
2017-06-23T07:18:10.081Z,23.39
2017-06-23T07:19:19.402Z,23.35
2017-06-23T07:20:29.023Z,23.35
2017-06-23T07:21:38.951Z,23.42
2017-06-23T07:22:48.573Z,23.38
2017-06-23T07:23:58.508Z,23.42
2017-06-23T07:25:08.766Z,23.33
2017-06-23T07:26:19.020Z,23.38
2017-06-23T07:27:28.641Z,23.38
2017-06-23T07:28:38.259Z,23.36
2017-06-23T07:29:48.506Z,23.46
2017-06-23T07:30:58.755Z,23.39
2017-06-23T07:32:08.064Z,23.43
2017-06-23T07:33:17.999Z,23.38
2017-06-23T07:34:27.946Z,23.39
2017-06-23T07:35:38.191Z,23.42
2017-06-23T07:36:48.117Z,23.47
2017-06-23T07:37:58.055Z,23.4
2017-06-23T07:39:08.308Z,23.51
2017-06-23T07:40:18.247Z,23.43
2017-06-23T07:41:28.189Z,23.46
2017-06-23T07:42:38.132Z,23.46
2017-06-23T07:43:48.389Z,23.47
2017-06-23T07:44:58.010Z,23.43
2017-06-23T07:46:07.949Z,23.5
2017-06-23T07:47:18.207Z,23.53
2017-06-23T07:48:28.143Z,23.5
2017-06-23T07:49:38.083Z,23.51
2017-06-23T07:50:48.020Z,23.5
2017-06-23T07:51:57.965Z,23.51
2017-06-23T07:53:08.213Z,23.48
2017-06-23T07:54:18.463Z,23.5
2017-06-23T07:55:28.410Z,23.5
2017-06-23T07:56:38.020Z,23.54
2017-06-23T07:57:48.266Z,23.55
2017-06-23T07:58:58.193Z,23.53
2017-06-23T08:00:07.809Z,23.53
2017-06-23T08:01:17.420Z,23.6
2017-06-23T08:02:26.714Z,23.53
2017-06-23T08:03:36.645Z,23.55
2017-06-23T08:04:46.905Z,23.6
2017-06-23T08:05:57.167Z,23.58
2017-06-23T08:07:06.793Z,23.51
2017-06-23T08:08:17.058Z,23.5
2017-06-23T08:09:27.299Z,23.54
2017-06-23T08:10:37.546Z,23.53
2017-06-23T08:11:47.482Z,23.54
2017-06-23T08:12:57.104Z,23.63
2017-06-23T08:14:07.050Z,23.57
2017-06-23T08:15:17.296Z,23.58
2017-06-23T08:16:27.543Z,23.6
2017-06-23T08:17:37.156Z,23.61
2017-06-23T08:18:47.401Z,23.7
2017-06-23T08:19:57.329Z,23.69
2017-06-23T08:21:07.575Z,23.7
2017-06-23T08:22:17.200Z,23.6
2017-06-23T08:23:27.452Z,23.68
2017-06-23T08:24:36.782Z,23.75
2017-06-23T08:25:47.035Z,23.68
2017-06-23T08:26:56.682Z,23.63
2017-06-23T08:28:06.933Z,23.7
2017-06-23T08:29:16.867Z,23.7
2017-06-23T08:30:26.180Z,23.65
2017-06-23T08:31:36.425Z,23.7
2017-06-23T08:32:46.052Z,23.69
2017-06-23T08:33:55.999Z,23.75
2017-06-23T08:35:06.246Z,23.6
2017-06-23T08:36:16.199Z,23.69
2017-06-23T08:37:26.440Z,23.68
2017-06-23T08:38:36.053Z,23.7
2017-06-23T08:39:45.665Z,23.69
2017-06-23T08:40:55.603Z,23.68
2017-06-23T08:42:04.912Z,23.72
2017-06-23T08:43:14.859Z,23.75
2017-06-23T08:44:25.093Z,23.68
2017-06-23T08:45:35.022Z,23.69
2017-06-23T08:46:45.263Z,23.72
2017-06-23T08:47:55.522Z,23.75
2017-06-23T08:49:05.154Z,23.7
2017-06-23T08:50:14.770Z,23.68
2017-06-23T08:51:25.015Z,23.68
2017-06-23T08:52:35.268Z,23.7
2017-06-23T08:53:45.207Z,23.73
2017-06-23T08:54:55.456Z,23.72
2017-06-23T08:56:05.066Z,23.73
2017-06-23T08:57:15.319Z,23.68
2017-06-23T08:58:24.935Z,23.58
2017-06-23T08:59:34.875Z,23.66
2017-06-23T09:00:45.117Z,23.65
2017-06-23T09:01:54.750Z,23.68
2017-06-23T09:03:04.677Z,23.68
2017-06-23T09:04:14.609Z,23.78
2017-06-23T09:05:24.853Z,23.69
2017-06-23T09:06:34.790Z,23.68
2017-06-23T09:07:44.430Z,23.7
2017-06-23T09:08:54.055Z,23.76
2017-06-23T09:10:04.293Z,23.69
2017-06-23T09:11:14.239Z,23.7
2017-06-23T09:12:23.862Z,23.73
2017-06-23T09:13:34.116Z,23.7
2017-06-23T09:14:43.740Z,23.69
2017-06-23T09:15:54.002Z,23.73
2017-06-23T09:17:03.642Z,23.7
2017-06-23T09:18:13.575Z,23.73
2017-06-23T09:19:23.515Z,23.73
2017-06-23T09:20:33.767Z,23.69
2017-06-23T09:21:43.997Z,23.7
2017-06-23T09:22:53.973Z,23.72
2017-06-23T09:24:03.902Z,23.69
2017-06-23T09:25:13.827Z,23.72
2017-06-23T09:26:24.078Z,23.7
2017-06-23T09:27:34.019Z,23.72
2017-06-23T09:28:43.326Z,23.68
2017-06-23T09:29:52.950Z,23.66
2017-06-23T09:31:02.570Z,23.72
2017-06-23T09:32:12.521Z,23.72
2017-06-23T09:33:22.145Z,23.7
2017-06-23T09:34:32.393Z,23.76
2017-06-23T09:35:42.329Z,23.75
2017-06-23T09:36:52.577Z,23.65
2017-06-23T09:38:02.523Z,23.72
2017-06-23T09:39:12.460Z,23.75
2017-06-23T09:40:22.386Z,23.75
2017-06-23T09:41:32.638Z,23.7
2017-06-23T09:42:42.886Z,23.7
2017-06-23T09:43:53.135Z,23.7
2017-06-23T09:45:02.754Z,23.68
2017-06-23T09:46:13.023Z,23.75
2017-06-23T09:47:23.269Z,23.75
2017-06-23T09:48:33.210Z,23.68
2017-06-23T09:49:43.148Z,23.75
2017-06-23T09:50:53.400Z,23.79
2017-06-23T09:52:03.678Z,23.68
2017-06-23T09:53:13.638Z,23.69
2017-06-23T09:54:23.888Z,23.7
2017-06-23T09:55:34.138Z,23.73
2017-06-23T09:56:44.382Z,23.73
2017-06-23T09:57:54.001Z,23.7
2017-06-23T09:59:03.947Z,23.75
2017-06-23T10:00:14.198Z,23.69
2017-06-23T10:01:24.447Z,23.75
2017-06-23T10:02:34.384Z,23.78
2017-06-23T10:03:44.653Z,23.76
2017-06-23T10:04:54.584Z,23.72
2017-06-23T10:06:04.211Z,23.73
2017-06-23T10:07:13.522Z,23.75
2017-06-23T10:08:22.828Z,23.73
2017-06-23T10:09:32.765Z,23.76
2017-06-23T10:10:42.995Z,23.73
2017-06-23T10:11:52.365Z,23.7
2017-06-23T10:13:02.304Z,23.75
2017-06-23T10:14:12.550Z,23.73
2017-06-23T10:15:22.480Z,23.7
2017-06-23T10:16:32.727Z,23.7
2017-06-23T10:17:42.342Z,23.73
2017-06-23T10:18:52.592Z,23.68
2017-06-23T10:20:02.848Z,23.7
2017-06-23T10:21:12.476Z,23.66
2017-06-23T10:22:22.401Z,23.76
2017-06-23T10:23:32.333Z,23.69
2017-06-23T10:24:42.267Z,23.68
2017-06-23T10:25:52.202Z,23.8
2017-06-23T10:27:02.455Z,23.8
2017-06-23T10:28:12.700Z,23.68
2017-06-23T10:29:22.639Z,23.75
2017-06-23T10:30:32.581Z,23.7
2017-06-23T10:31:42.856Z,23.83
2017-06-23T10:32:53.106Z,23.72
2017-06-23T10:34:03.065Z,23.75
2017-06-23T10:35:13.306Z,23.7
2017-06-23T10:36:23.242Z,23.72
2017-06-23T10:37:33.178Z,23.73
2017-06-23T10:38:43.432Z,23.72
2017-06-23T10:39:53.678Z,23.8
2017-06-23T10:41:02.985Z,23.72
2017-06-23T10:42:12.921Z,23.68
2017-06-23T10:43:23.167Z,23.73
2017-06-23T10:44:33.101Z,23.73
2017-06-23T10:45:43.369Z,23.76
2017-06-23T10:46:53.602Z,23.76
2017-06-23T10:48:03.854Z,23.79
2017-06-23T10:49:14.108Z,23.73
2017-06-23T10:50:23.744Z,23.72
2017-06-23T10:51:33.358Z,23.7
2017-06-23T10:52:43.289Z,23.7
2017-06-23T10:53:52.913Z,23.76
2017-06-23T10:55:03.164Z,23.72
2017-06-23T10:56:12.805Z,23.85
2017-06-23T10:57:23.060Z,23.76
2017-06-23T10:58:33.329Z,23.76
2017-06-23T10:59:42.948Z,23.72
2017-06-23T11:00:52.884Z,23.78
2017-06-23T11:02:02.816Z,23.72
2017-06-23T11:03:12.436Z,23.83
2017-06-23T11:04:22.051Z,23.75
2017-06-23T11:05:32.314Z,23.79
2017-06-23T11:06:42.551Z,23.8
2017-06-23T11:07:52.479Z,23.73
2017-06-23T11:09:02.717Z,23.75
2017-06-23T11:10:12.655Z,23.73
2017-06-23T11:11:22.940Z,23.69
2017-06-23T11:12:32.256Z,23.84
2017-06-23T11:13:41.887Z,23.76
2017-06-23T11:14:52.154Z,23.75
2017-06-23T11:16:02.412Z,23.76
2017-06-23T11:17:12.344Z,23.69
2017-06-23T11:18:22.292Z,23.78
2017-06-23T11:19:32.228Z,23.8
2017-06-23T11:20:42.157Z,23.79
2017-06-23T11:21:52.421Z,23.73
2017-06-23T11:23:02.669Z,23.75
2017-06-23T11:24:12.296Z,23.75
2017-06-23T11:25:22.541Z,23.73
2017-06-23T11:26:32.799Z,23.75
2017-06-23T11:27:43.057Z,23.79
2017-06-23T11:28:52.991Z,23.76
2017-06-23T11:30:03.249Z,23.78
2017-06-23T11:31:12.874Z,23.76
2017-06-23T11:32:22.508Z,23.78
2017-06-23T11:33:32.757Z,23.69
2017-06-23T11:34:42.379Z,23.72
2017-06-23T11:35:52.006Z,23.73
2017-06-23T11:37:02.253Z,23.73
2017-06-23T11:38:12.173Z,23.79
2017-06-23T11:39:21.789Z,23.66
2017-06-23T11:40:31.720Z,23.8
2017-06-23T11:41:41.991Z,23.79
2017-06-23T11:42:51.921Z,23.84
2017-06-23T11:44:01.857Z,23.8
2017-06-23T11:45:12.101Z,23.8
2017-06-23T11:46:21.733Z,23.76
2017-06-23T11:47:31.356Z,23.8
2017-06-23T11:48:40.976Z,23.8
2017-06-23T11:49:50.922Z,23.8
2017-06-23T11:51:00.856Z,23.83
2017-06-23T11:52:10.790Z,23.84
2017-06-23T11:53:20.734Z,23.78
2017-06-23T11:54:30.664Z,23.66
2017-06-23T11:55:40.607Z,23.8
2017-06-23T11:56:50.856Z,23.76
2017-06-23T11:58:00.481Z,23.83
2017-06-23T11:59:10.104Z,23.63
2017-06-23T12:00:19.716Z,23.78
2017-06-23T12:01:29.650Z,23.63
2017-06-23T12:02:39.900Z,23.8
2017-06-23T12:03:49.241Z,23.78
2017-06-23T12:04:58.857Z,23.8
2017-06-23T12:06:08.485Z,23.73
2017-06-23T12:07:18.101Z,23.8
2017-06-23T12:08:27.411Z,23.69
2017-06-23T12:09:37.356Z,23.73
2017-06-23T12:10:47.594Z,23.7
2017-06-23T12:11:57.538Z,23.76
2017-06-23T12:13:07.160Z,23.68
2017-06-23T12:14:17.412Z,23.68
2017-06-23T12:15:27.657Z,23.76
2017-06-23T12:16:37.922Z,23.84
2017-06-23T12:17:47.872Z,23.69
2017-06-23T12:18:58.120Z,23.75
2017-06-23T12:20:07.749Z,23.73
2017-06-23T12:21:18.006Z,23.84
2017-06-23T12:22:27.627Z,23.72
2017-06-23T12:23:37.562Z,23.79
2017-06-23T12:24:47.498Z,23.8
2017-06-23T12:25:57.447Z,23.8
2017-06-23T12:27:07.698Z,23.68
2017-06-23T12:28:17.956Z,23.78
2017-06-23T12:29:27.578Z,23.83
2017-06-23T12:30:37.516Z,23.7
2017-06-23T12:31:47.763Z,23.69
2017-06-23T12:32:58.012Z,23.68
2017-06-23T12:34:07.633Z,23.73
2017-06-23T12:35:17.567Z,23.88
2017-06-23T12:36:27.509Z,23.84
2017-06-23T12:37:37.762Z,23.73
2017-06-23T12:38:47.069Z,23.75
2017-06-23T12:39:57.319Z,23.78
2017-06-23T12:41:07.572Z,23.79
2017-06-23T12:42:17.510Z,23.84
2017-06-23T12:43:27.122Z,23.79
2017-06-23T12:44:37.371Z,23.72
2017-06-23T12:45:47.306Z,23.69
2017-06-23T12:46:57.237Z,23.78
2017-06-23T12:48:07.177Z,23.73
2017-06-23T12:49:16.794Z,23.79
2017-06-23T12:50:26.725Z,23.7
2017-06-23T12:51:36.350Z,23.73
2017-06-23T12:52:46.286Z,23.79
2017-06-23T12:53:56.522Z,23.79
2017-06-23T12:55:06.769Z,23.79
2017-06-23T12:56:16.705Z,23.78
2017-06-23T12:57:26.956Z,23.7
2017-06-23T12:58:37.206Z,23.7
2017-06-23T12:59:47.143Z,23.73
2017-06-23T13:00:57.092Z,23.84
2017-06-23T13:02:06.410Z,23.72
2017-06-23T13:03:16.039Z,23.8
2017-06-23T13:04:26.288Z,23.7
2017-06-23T13:05:35.915Z,23.87
2017-06-23T13:06:46.165Z,23.8
2017-06-23T13:07:56.409Z,23.8
2017-06-23T13:09:06.663Z,23.79
2017-06-23T13:10:16.588Z,23.79
2017-06-23T13:11:26.525Z,23.69
2017-06-23T13:12:36.469Z,23.78
2017-06-23T13:13:46.412Z,23.83
2017-06-23T13:14:56.662Z,23.73
2017-06-23T13:16:06.288Z,23.76
2017-06-23T13:17:16.237Z,23.72
2017-06-23T13:18:26.172Z,23.79
2017-06-23T13:19:35.480Z,23.83
2017-06-23T13:20:45.105Z,23.76
2017-06-23T13:21:55.045Z,23.75
2017-06-23T13:23:05.293Z,23.79
2017-06-23T13:24:15.218Z,23.83
2017-06-23T13:25:25.476Z,23.75
2017-06-23T13:26:35.416Z,23.75
2017-06-23T13:27:45.673Z,23.78
2017-06-23T13:28:55.613Z,23.76
2017-06-23T13:30:05.863Z,23.79
2017-06-23T13:31:15.813Z,23.76
2017-06-23T13:32:25.759Z,23.79
2017-06-23T13:33:35.708Z,23.78
2017-06-23T13:34:45.962Z,23.79
2017-06-23T13:35:56.210Z,23.78
2017-06-23T13:37:06.459Z,23.78
2017-06-23T13:38:16.716Z,23.84
2017-06-23T13:39:26.638Z,23.79
2017-06-23T13:40:36.578Z,23.76
2017-06-23T13:41:46.824Z,23.87
2017-06-23T13:42:56.773Z,23.79
2017-06-23T13:44:06.703Z,23.76
2017-06-23T13:45:16.956Z,23.8
2017-06-23T13:46:26.906Z,23.76
2017-06-23T13:47:36.524Z,23.76
2017-06-23T13:48:46.778Z,23.76
2017-06-23T13:49:57.028Z,23.84
2017-06-23T13:51:06.656Z,23.75
2017-06-23T13:52:15.970Z,23.79
2017-06-23T13:53:25.906Z,23.76
2017-06-23T13:54:35.521Z,23.79
2017-06-23T13:55:45.145Z,23.73
2017-06-23T13:56:55.398Z,23.79
2017-06-23T13:58:05.033Z,23.76
2017-06-23T13:59:15.294Z,23.75
2017-06-23T14:00:25.227Z,23.79
2017-06-23T14:01:35.481Z,23.75
2017-06-23T14:02:45.116Z,23.76
2017-06-23T14:03:54.741Z,23.75
2017-06-23T14:05:04.397Z,23.78
2017-06-23T14:06:14.326Z,23.75
2017-06-23T14:07:24.263Z,23.75
2017-06-23T14:08:34.187Z,23.79
2017-06-23T14:09:44.102Z,23.79
2017-06-23T14:10:54.340Z,23.84
2017-06-23T14:12:04.286Z,23.83
2017-06-23T14:13:14.543Z,23.75
2017-06-23T14:14:24.803Z,23.79
2017-06-23T14:15:34.729Z,23.75
2017-06-23T14:16:44.986Z,23.79
2017-06-23T14:17:55.231Z,23.79
2017-06-23T14:19:05.168Z,23.75
2017-06-23T14:20:15.420Z,23.76
2017-06-23T14:21:25.663Z,23.75
2017-06-23T14:22:35.927Z,23.8
2017-06-23T14:23:45.555Z,23.8
2017-06-23T14:24:55.487Z,23.75
2017-06-23T14:26:05.746Z,23.72
2017-06-23T14:27:15.051Z,23.79
2017-06-23T14:28:25.307Z,23.79
2017-06-23T14:29:35.565Z,23.79
2017-06-23T14:30:45.824Z,23.75
2017-06-23T14:31:55.439Z,23.78
2017-06-23T14:33:04.761Z,23.76
2017-06-23T14:34:14.686Z,23.79
2017-06-23T14:35:24.633Z,23.78
2017-06-23T14:36:34.282Z,23.7
2017-06-23T14:37:43.916Z,23.72
2017-06-23T14:38:53.556Z,23.87
2017-06-23T14:40:03.806Z,23.78
2017-06-23T14:41:13.757Z,23.79
2017-06-23T14:42:23.695Z,23.76
2017-06-23T14:43:33.309Z,23.78
2017-06-23T14:44:43.253Z,23.72
2017-06-23T14:45:52.865Z,23.7
2017-06-23T14:47:02.788Z,23.84
2017-06-23T14:48:13.038Z,23.78
2017-06-23T14:49:22.982Z,23.76
2017-06-23T14:50:32.606Z,23.79
2017-06-23T14:51:42.249Z,23.73
2017-06-23T14:52:52.507Z,23.73
2017-06-23T14:54:02.748Z,23.76
2017-06-23T14:55:12.691Z,23.76
2017-06-23T14:56:22.631Z,23.76
2017-06-23T14:57:32.885Z,23.78
2017-06-23T14:58:42.508Z,23.8
2017-06-23T14:59:52.130Z,23.83
2017-06-23T15:01:02.057Z,23.78
2017-06-23T15:02:12.306Z,23.78
2017-06-23T15:03:22.245Z,23.73
2017-06-23T15:04:31.886Z,23.75
2017-06-23T15:05:42.141Z,23.76
2017-06-23T15:06:52.387Z,23.76